createdAt,value
2023-11-15T00:01:57.163Z,8.32
2023-11-15T00:04:35.081Z,9.48
2023-11-15T00:07:14.865Z,8.75
2023-11-15T00:09:51.848Z,9.20
2023-11-15T00:12:21.681Z,9.32
2023-11-15T00:14:57.611Z,9.02
2023-11-15T00:17:41.859Z,7.93
2023-11-15T00:20:14.671Z,9.00
2023-11-15T00:22:52.581Z,9.75
2023-11-15T00:25:26.410Z,10.45
2023-11-15T00:27:55.930Z,10.85
2023-11-15T00:30:28.111Z,9.25
2023-11-15T00:33:00.594Z,8.95
2023-11-15T00:35:34.917Z,8.63
2023-11-15T00:38:07.518Z,10.07
2023-11-15T00:40:39.844Z,8.27
2023-11-15T00:45:44.934Z,10.48
2023-11-15T00:48:17.159Z,9.48
2023-11-15T00:50:47.792Z,10.90
2023-11-15T00:53:21.193Z,8.90
2023-11-15T00:56:00.035Z,9.05
2023-11-15T00:58:39.840Z,10.90
2023-11-15T01:01:14.722Z,10.95
2023-11-15T01:03:57.464Z,9.27
2023-11-15T01:09:15.873Z,10.48
2023-11-15T01:11:57.224Z,10.00
2023-11-15T01:14:37.609Z,10.00
2023-11-15T01:17:10.058Z,11.38
2023-11-15T01:19:47.244Z,9.23
2023-11-15T01:22:18.037Z,9.43
2023-11-15T01:24:50.450Z,11.00
2023-11-15T01:27:26.354Z,12.07
2023-11-15T01:30:07.847Z,11.77
2023-11-15T01:32:37.959Z,10.63
2023-11-15T01:35:20.319Z,10.85
2023-11-15T01:37:55.189Z,10.98
2023-11-15T01:40:30.210Z,10.27
2023-11-15T01:43:11.330Z,10.55
2023-11-15T01:45:44.287Z,11.10
2023-11-15T01:48:17.185Z,10.20
2023-11-15T01:51:06.374Z,11.75
2023-11-15T01:53:53.739Z,12.27
2023-11-15T01:56:29.513Z,13.35
2023-11-15T01:59:08.422Z,13.25
2023-11-15T02:01:44.979Z,13.60
2023-11-15T02:04:20.916Z,12.80
2023-11-15T02:07:00.671Z,11.18
2023-11-15T02:09:37.093Z,12.10
2023-11-15T02:12:14.707Z,12.00
2023-11-15T02:14:51.199Z,13.02
2023-11-15T02:17:23.825Z,11.35
2023-11-15T02:19:59.053Z,13.30
2023-11-15T02:22:33.769Z,13.30
2023-11-15T02:25:14.362Z,11.50
2023-11-15T02:27:49.455Z,12.65
2023-11-15T02:30:23.467Z,17.33
2023-11-15T02:32:54.159Z,12.82
2023-11-15T02:35:31.104Z,15.03
2023-11-15T02:38:13.078Z,11.85
2023-11-15T02:40:58.200Z,13.98
2023-11-15T02:43:34.964Z,16.40
2023-11-15T02:46:17.411Z,12.38
2023-11-15T02:48:57.190Z,15.98
2023-11-15T02:51:32.080Z,12.93
2023-11-15T02:54:09.642Z,14.13
2023-11-15T02:59:16.535Z,12.55
2023-11-15T03:01:56.146Z,17.52
2023-11-15T03:04:27.569Z,14.75
2023-11-15T03:06:59.827Z,15.63
2023-11-15T03:09:38.472Z,14.65
2023-11-15T03:12:17.224Z,15.25
2023-11-15T03:14:57.541Z,13.18
2023-11-15T03:17:33.773Z,12.43
2023-11-15T03:20:06.418Z,13.27
2023-11-15T03:22:41.864Z,15.10
2023-11-15T03:25:12.439Z,15.95
2023-11-15T03:27:48.562Z,15.57
2023-11-15T03:30:24.089Z,16.95
2023-11-15T03:33:02.531Z,13.82
2023-11-15T03:35:40.901Z,13.43
2023-11-15T03:38:13.529Z,17.60
2023-11-15T03:40:45.116Z,14.35
2023-11-15T03:43:24.453Z,10.98
2023-11-15T03:45:59.976Z,16.33
2023-11-15T03:48:46.482Z,14.45
2023-11-15T03:51:20.551Z,17.15
2023-11-15T03:53:54.296Z,16.35
2023-11-15T03:56:24.291Z,13.95
2023-11-15T03:59:02.249Z,16.27
2023-11-15T04:01:48.580Z,16.10
2023-11-15T04:04:36.845Z,16.50
2023-11-15T04:07:13.502Z,14.35
2023-11-15T04:09:52.785Z,13.95
2023-11-15T04:12:26.508Z,16.48
2023-11-15T04:15:04.581Z,13.25
2023-11-15T04:17:35.907Z,13.65
2023-11-15T04:20:15.796Z,15.45
2023-11-15T04:22:46.918Z,14.15
2023-11-15T04:25:24.103Z,16.73
2023-11-15T04:30:30.983Z,16.90
2023-11-15T04:33:04.053Z,16.98
2023-11-15T04:35:40.746Z,17.90
2023-11-15T04:38:18.130Z,16.60
2023-11-15T04:40:55.093Z,18.02
2023-11-15T04:46:00.897Z,19.20
2023-11-15T04:48:34.515Z,18.63
2023-11-15T04:51:04.222Z,17.85
2023-11-15T04:53:41.377Z,17.65
2023-11-15T04:56:16.014Z,19.80
2023-11-15T04:58:47.825Z,18.33
2023-11-15T05:01:26.812Z,18.10
2023-11-15T05:03:56.662Z,19.80
2023-11-15T05:09:07.128Z,18.95
2023-11-15T05:11:46.181Z,19.80
2023-11-15T05:14:18.574Z,25.33
2023-11-15T05:16:59.871Z,21.75
2023-11-15T05:19:43.533Z,20.30
2023-11-15T05:22:22.458Z,17.95
2023-11-15T05:24:55.326Z,17.25
2023-11-15T05:27:30.420Z,22.67
2023-11-15T05:32:44.291Z,19.88
2023-11-15T05:35:19.176Z,19.25
2023-11-15T05:37:52.576Z,22.15
2023-11-15T05:40:28.317Z,20.15
2023-11-15T05:43:12.931Z,16.77
2023-11-15T05:46:08.677Z,17.65
2023-11-15T05:48:54.958Z,17.67
2023-11-15T05:51:30.814Z,19.20
2023-11-15T05:56:59.832Z,19.95
2023-11-15T06:02:19.928Z,25.17
2023-11-15T06:07:29.566Z,24.13
2023-11-15T06:10:04.464Z,21.55
2023-11-15T06:15:48.835Z,22.05
2023-11-15T06:18:22.791Z,22.55
2023-11-15T06:20:59.676Z,21.60
2023-11-15T06:23:38.659Z,20.85
2023-11-15T06:26:19.087Z,23.80
2023-11-15T06:28:57.314Z,19.73
2023-11-15T06:31:28.889Z,22.77
2023-11-15T06:34:02.262Z,20.52
2023-11-15T06:36:43.470Z,19.08
2023-11-15T06:39:22.008Z,18.98
2023-11-15T06:44:37.449Z,22.10
2023-11-15T06:47:17.571Z,23.10
2023-11-15T06:49:49.341Z,25.48
2023-11-15T06:52:34.259Z,25.60
2023-11-15T06:55:07.760Z,19.38
2023-11-15T06:57:50.701Z,27.63
2023-11-15T07:00:27.462Z,21.08
2023-11-15T07:03:00.838Z,24.95
2023-11-15T07:05:51.205Z,28.35
2023-11-15T07:08:48.011Z,22.95
2023-11-15T07:11:22.400Z,22.50
2023-11-15T07:14:05.443Z,20.40
2023-11-15T07:19:12.629Z,22.70
2023-11-15T07:21:58.622Z,23.88
2023-11-15T07:24:42.685Z,22.20
2023-11-15T07:27:28.620Z,22.55
2023-11-15T07:30:12.693Z,24.05
2023-11-15T07:32:53.181Z,22.90
2023-11-15T07:35:30.451Z,21.63
2023-11-15T07:38:10.467Z,27.73
2023-11-15T07:40:47.862Z,21.90
2023-11-15T07:43:19.200Z,21.27
2023-11-15T07:45:56.060Z,19.88
2023-11-15T07:48:31.976Z,19.05
2023-11-15T07:51:19.515Z,20.10
2023-11-15T07:54:01.897Z,19.77
2023-11-15T07:56:40.454Z,21.77
2023-11-15T07:59:12.656Z,20.15
2023-11-15T08:01:45.961Z,22.95
2023-11-15T08:04:27.558Z,20.80
2023-11-15T08:07:06.561Z,20.00
2023-11-15T08:09:37.712Z,20.05
2023-11-15T08:12:15.360Z,19.23
2023-11-15T08:14:55.564Z,21.23
2023-11-15T08:17:27.448Z,20.95
2023-11-15T08:20:01.336Z,18.55
2023-11-15T08:22:37.027Z,18.50
2023-11-15T08:25:13.328Z,25.05
2023-11-15T08:27:45.564Z,15.18
2023-11-15T08:30:19.370Z,16.80
2023-11-15T08:33:09.413Z,19.52
2023-11-15T08:35:51.185Z,22.98
2023-11-15T08:38:26.404Z,23.70
2023-11-15T08:40:58.295Z,29.92
2023-11-15T08:44:04.818Z,31.63
2023-11-15T08:46:47.239Z,39.70
2023-11-15T08:49:21.417Z,36.55
2023-11-15T08:51:58.367Z,41.10
2023-11-15T08:57:18.300Z,35.25
2023-11-15T08:59:58.289Z,37.38
2023-11-15T09:02:32.912Z,31.33
2023-11-15T09:05:21.752Z,33.28
2023-11-15T09:08:00.907Z,32.80
2023-11-15T09:10:32.897Z,34.08
2023-11-15T09:13:09.107Z,32.67
2023-11-15T09:15:48.291Z,31.75
2023-11-15T09:18:27.227Z,26.35
2023-11-15T09:26:36.860Z,32.38
2023-11-15T09:29:10.624Z,31.73
2023-11-15T09:31:47.456Z,36.25
2023-11-15T09:34:20.841Z,38.75
2023-11-15T09:37:07.433Z,28.63
2023-11-15T09:39:47.808Z,30.85
2023-11-15T09:42:21.758Z,30.77
2023-11-15T09:44:52.964Z,31.27
2023-11-15T09:47:33.207Z,28.33
2023-11-15T09:50:16.047Z,28.05
2023-11-15T09:52:50.742Z,29.88
2023-11-15T09:55:24.202Z,29.80
2023-11-15T09:57:59.244Z,29.35
2023-11-15T10:00:36.537Z,31.77
2023-11-15T10:03:20.010Z,33.97
2023-11-15T10:06:07.345Z,30.92
2023-11-15T10:08:41.450Z,33.15
2023-11-15T10:11:16.869Z,33.55
2023-11-15T10:13:52.311Z,36.70
2023-11-15T10:16:32.199Z,41.22
2023-11-15T10:19:24.809Z,30.63
2023-11-15T10:22:06.487Z,27.92
2023-11-15T10:24:44.412Z,31.05
2023-11-15T10:27:25.666Z,27.90
2023-11-15T10:30:04.425Z,36.20
2023-11-15T10:32:39.631Z,30.02
2023-11-15T10:35:19.921Z,27.45
2023-11-15T10:40:45.031Z,28.13
2023-11-15T10:43:31.514Z,32.00
2023-11-15T10:46:03.962Z,25.95
2023-11-15T10:48:38.252Z,28.83
2023-11-15T10:51:25.805Z,27.38
2023-11-15T10:54:02.139Z,25.67
2023-11-15T10:56:36.355Z,29.70
2023-11-15T10:59:07.610Z,32.40
2023-11-15T11:01:39.424Z,35.67
2023-11-15T11:04:17.629Z,30.25
2023-11-15T11:09:47.696Z,35.60
2023-11-15T11:12:31.321Z,31.63
2023-11-15T11:15:36.849Z,26.73
2023-11-15T11:18:23.423Z,28.90
2023-11-15T11:21:03.675Z,31.85
2023-11-15T11:24:19.645Z,31.67
2023-11-15T11:26:54.920Z,31.25
2023-11-15T11:29:27.962Z,40.65
2023-11-15T11:32:35.184Z,39.90
2023-11-15T11:35:40.300Z,33.03
2023-11-15T11:38:13.021Z,37.10
2023-11-15T11:40:56.918Z,41.38
2023-11-15T11:43:32.365Z,35.05
2023-11-15T11:46:19.236Z,37.65
2023-11-15T11:48:49.041Z,35.92
2023-11-15T11:51:21.943Z,43.80
2023-11-15T11:53:55.658Z,32.60
2023-11-15T11:56:37.382Z,33.88
2023-11-15T11:59:14.822Z,33.08
2023-11-15T12:01:56.732Z,33.70
2023-11-15T12:04:31.544Z,32.40
2023-11-15T12:07:05.183Z,36.70
2023-11-15T12:09:37.897Z,40.28
2023-11-15T12:12:13.372Z,38.08
2023-11-15T12:14:53.589Z,40.40
2023-11-15T12:17:29.418Z,43.38
2023-11-15T12:20:08.461Z,41.72
2023-11-15T12:22:43.609Z,37.50
2023-11-15T12:25:24.930Z,44.22
2023-11-15T12:28:04.105Z,37.10
2023-11-15T12:30:41.694Z,31.80
2023-11-15T12:33:18.101Z,39.35
2023-11-15T12:35:52.191Z,42.08
2023-11-15T12:38:25.368Z,41.05
2023-11-15T12:47:55.393Z,44.63
2023-11-15T12:50:31.875Z,45.40
2023-11-15T12:53:15.820Z,44.65
2023-11-15T12:56:00.761Z,43.28
2023-11-15T12:58:50.061Z,45.47
2023-11-15T13:01:26.163Z,49.70
2023-11-15T13:04:02.042Z,43.83
2023-11-15T13:06:48.176Z,41.22
2023-11-15T13:12:03.114Z,41.40
2023-11-15T13:17:15.083Z,40.33
2023-11-15T13:19:55.095Z,40.83
2023-11-15T13:22:31.823Z,41.88
2023-11-15T13:25:11.355Z,41.28
2023-11-15T13:27:43.312Z,41.63
2023-11-15T13:30:17.605Z,48.85
2023-11-15T13:32:50.785Z,44.22
2023-11-15T13:35:28.404Z,59.60
2023-11-15T13:38:01.251Z,53.60
2023-11-15T13:40:35.003Z,53.92
2023-11-15T13:43:13.347Z,61.53
2023-11-15T13:45:46.933Z,54.15
2023-11-15T13:48:26.574Z,57.25
2023-11-15T13:51:06.775Z,53.15
2023-11-15T13:53:40.583Z,56.20
2023-11-15T13:56:13.180Z,50.53
2023-11-15T14:01:18.374Z,48.75
2023-11-15T14:03:56.522Z,55.55
2023-11-15T14:06:33.588Z,45.40
2023-11-15T14:09:10.080Z,50.55
2023-11-15T14:11:45.531Z,51.60
2023-11-15T14:14:16.780Z,50.05
2023-11-15T14:16:50.009Z,52.20
2023-11-15T14:19:25.296Z,55.92
2023-11-15T14:21:59.529Z,55.58
2023-11-15T14:24:31.649Z,59.17
2023-11-15T14:29:43.125Z,56.30
2023-11-15T14:32:19.563Z,59.28
2023-11-15T14:34:57.029Z,56.38
2023-11-15T14:37:35.088Z,53.33
2023-11-15T14:40:12.731Z,60.17
2023-11-15T14:42:49.173Z,54.90
2023-11-15T14:45:28.340Z,52.50
2023-11-15T14:48:00.290Z,49.70
2023-11-15T14:50:39.670Z,48.50
2023-11-15T14:53:31.593Z,48.88
2023-11-15T14:56:12.741Z,54.35
2023-11-15T14:58:53.563Z,54.17
2023-11-15T15:01:27.623Z,46.90
2023-11-15T15:04:00.005Z,49.85
2023-11-15T15:06:30.180Z,50.90
2023-11-15T15:09:06.168Z,47.25
2023-11-15T15:11:39.662Z,48.28
2023-11-15T15:14:12.756Z,51.40
2023-11-15T15:19:24.171Z,51.03
2023-11-15T15:21:56.343Z,52.35
2023-11-15T15:24:33.456Z,47.80
2023-11-15T15:27:09.161Z,49.85
2023-11-15T15:29:50.678Z,57.65
2023-11-15T15:32:25.928Z,52.60
2023-11-15T15:34:59.219Z,60.05
2023-11-15T15:37:39.948Z,67.22
2023-11-15T15:40:23.512Z,46.28
2023-11-15T15:43:07.624Z,51.75
2023-11-15T15:45:45.009Z,53.45
2023-11-15T15:48:32.954Z,53.40
2023-11-15T15:51:08.955Z,48.55
2023-11-15T15:53:47.492Z,50.67
2023-11-15T15:56:23.834Z,53.53
2023-11-15T15:59:06.619Z,51.83
2023-11-15T16:01:40.681Z,48.47
2023-11-15T16:04:22.947Z,54.13
2023-11-15T16:07:03.201Z,46.05
2023-11-15T16:09:45.508Z,54.10
2023-11-15T16:12:25.369Z,51.88
2023-11-15T16:14:59.053Z,61.53
2023-11-15T16:20:22.888Z,63.35
2023-11-15T16:22:57.895Z,65.20
2023-11-15T16:25:47.140Z,61.28
2023-11-15T16:28:22.229Z,56.47
2023-11-15T16:31:00.476Z,56.53
2023-11-15T16:33:35.373Z,59.13
2023-11-15T16:36:14.009Z,52.17
2023-11-15T16:38:54.306Z,55.58
2023-11-15T16:41:29.237Z,57.83
2023-11-15T16:44:12.728Z,47.88
2023-11-15T16:50:00.762Z,57.97
2023-11-15T16:52:42.606Z,55.28
2023-11-15T16:55:20.930Z,53.42
2023-11-15T17:00:44.636Z,54.75
2023-11-15T17:03:21.907Z,49.22
2023-11-15T17:05:55.428Z,53.75
2023-11-15T17:08:29.961Z,53.70
2023-11-15T17:11:03.911Z,49.60
2023-11-15T17:13:37.467Z,48.08
2023-11-15T17:16:13.503Z,48.03
2023-11-15T17:18:49.278Z,49.40
2023-11-15T17:21:29.440Z,50.00
2023-11-15T17:24:06.975Z,49.40
2023-11-15T17:26:39.153Z,50.83
2023-11-15T17:29:16.022Z,50.03
2023-11-15T17:31:51.795Z,54.95
2023-11-15T17:34:35.638Z,47.20
2023-11-15T17:37:12.922Z,52.60
2023-11-15T17:39:46.415Z,52.45
2023-11-15T17:42:18.378Z,50.20
2023-11-15T17:45:00.715Z,45.75
2023-11-15T17:47:40.665Z,44.70
2023-11-15T17:50:14.549Z,53.33
2023-11-15T17:52:45.170Z,47.13
2023-11-15T17:55:19.589Z,47.25
2023-11-15T18:00:37.975Z,43.70
2023-11-15T18:03:12.048Z,48.45
2023-11-15T18:08:36.239Z,49.50
2023-11-15T18:11:25.532Z,46.88
2023-11-15T18:13:58.197Z,50.35
2023-11-15T18:16:37.704Z,56.20
2023-11-15T18:19:23.309Z,51.38
2023-11-15T18:22:01.264Z,48.08
2023-11-15T18:24:33.297Z,53.17
2023-11-15T18:27:17.063Z,60.95
2023-11-15T18:29:54.740Z,49.25
2023-11-15T18:32:27.041Z,48.38
2023-11-15T18:35:02.731Z,51.45
2023-11-15T18:37:36.828Z,51.92
2023-11-15T18:40:22.104Z,54.05
2023-11-15T18:42:53.237Z,44.47
2023-11-15T18:45:26.566Z,51.55
2023-11-15T18:47:59.136Z,47.83
2023-11-15T18:50:35.406Z,53.20
2023-11-15T18:53:35.114Z,46.42
2023-11-15T18:56:17.808Z,47.20
2023-11-15T18:58:56.292Z,44.95
2023-11-15T19:01:28.047Z,46.45
2023-11-15T19:06:39.191Z,43.13
2023-11-15T19:09:18.319Z,41.95
2023-11-15T19:11:53.027Z,43.65
2023-11-15T19:14:25.347Z,44.45
2023-11-15T19:16:57.698Z,43.28
2023-11-15T19:19:31.004Z,49.92
2023-11-15T19:22:05.858Z,47.35
2023-11-15T19:24:45.954Z,58.65
2023-11-15T19:27:17.090Z,49.83
2023-11-15T19:29:55.389Z,45.78
2023-11-15T19:32:33.780Z,43.42
2023-11-15T19:35:11.022Z,43.03
2023-11-15T19:37:44.116Z,41.00
2023-11-15T19:40:16.723Z,45.55
2023-11-15T19:42:55.425Z,39.13
2023-11-15T19:45:32.554Z,47.55
2023-11-15T19:48:02.540Z,44.28
2023-11-15T19:50:40.343Z,47.40
2023-11-15T19:53:20.475Z,37.47
2023-11-15T19:55:58.254Z,42.72
2023-11-15T19:58:29.567Z,49.05
2023-11-15T20:01:08.581Z,47.17
2023-11-15T20:03:44.945Z,40.25
2023-11-15T20:06:20.330Z,41.70
2023-11-15T20:08:54.773Z,47.38
2023-11-15T20:11:27.026Z,49.67
2023-11-15T20:13:57.651Z,44.13
2023-11-15T20:16:29.659Z,43.33
2023-11-15T20:21:31.410Z,43.58
2023-11-15T20:24:06.717Z,44.78
2023-11-15T20:26:39.293Z,41.97
2023-11-15T20:29:11.073Z,40.45
2023-11-15T20:34:30.253Z,39.80
2023-11-15T20:37:03.282Z,42.08
2023-11-15T20:39:40.335Z,43.45
2023-11-15T20:42:15.753Z,40.08
2023-11-15T20:44:50.098Z,43.20
2023-11-15T20:47:30.898Z,45.03
2023-11-15T20:50:05.608Z,44.10
2023-11-15T20:52:38.350Z,41.78
2023-11-15T20:55:16.279Z,36.00
2023-11-15T20:57:47.601Z,37.78
2023-11-15T21:00:26.432Z,38.70
2023-11-15T21:03:00.756Z,36.20
2023-11-15T21:05:37.966Z,36.85
2023-11-15T21:08:17.479Z,39.20
2023-11-15T21:10:50.437Z,35.90
2023-11-15T21:16:06.965Z,34.08
2023-11-15T21:18:46.895Z,37.78
2023-11-15T21:21:22.009Z,36.50
2023-11-15T21:23:55.379Z,38.03
2023-11-15T21:26:32.723Z,39.55
2023-11-15T21:29:13.893Z,41.22
2023-11-15T21:31:52.247Z,35.65
2023-11-15T21:34:39.465Z,41.40
2023-11-15T21:37:24.026Z,38.05
2023-11-15T21:39:59.225Z,42.20
2023-11-15T21:42:43.001Z,40.00
2023-11-15T21:45:24.854Z,40.90
2023-11-15T21:48:05.613Z,38.90
2023-11-15T21:51:04.387Z,39.35
2023-11-15T21:54:01.524Z,43.88
2023-11-15T21:56:37.061Z,46.00
2023-11-15T21:59:14.802Z,40.60
2023-11-15T22:01:50.793Z,41.38
2023-11-15T22:04:42.393Z,45.97
2023-11-15T22:07:20.225Z,41.42
2023-11-15T22:09:49.827Z,40.08
2023-11-15T22:12:21.827Z,43.40
2023-11-15T22:15:08.748Z,50.50
2023-11-15T22:17:50.629Z,47.90
2023-11-15T22:20:28.796Z,40.77
2023-11-15T22:23:08.081Z,45.50
2023-11-15T22:25:48.542Z,41.08
2023-11-15T22:28:25.224Z,39.75
2023-11-15T22:31:00.650Z,41.15
2023-11-15T22:33:36.704Z,36.92
2023-11-15T22:38:56.247Z,41.40
2023-11-15T22:41:31.757Z,45.38
2023-11-15T22:44:13.180Z,42.08
2023-11-15T22:46:52.723Z,45.20
2023-11-15T22:49:38.439Z,43.43
2023-11-15T22:52:14.792Z,40.05
2023-11-15T22:54:46.845Z,40.88
2023-11-15T22:57:18.311Z,42.67
2023-11-15T23:02:30.098Z,43.15
2023-11-15T23:05:11.878Z,41.55
2023-11-15T23:07:57.660Z,42.88
2023-11-15T23:10:41.822Z,47.20
2023-11-15T23:13:16.592Z,43.63
2023-11-15T23:15:52.301Z,45.25
2023-11-15T23:18:26.658Z,46.05
2023-11-15T23:20:58.027Z,48.97
2023-11-15T23:23:33.180Z,49.22
2023-11-15T23:26:10.690Z,51.88
2023-11-15T23:28:50.556Z,51.58
2023-11-15T23:31:35.748Z,56.85
2023-11-15T23:34:19.150Z,54.75
2023-11-15T23:37:08.588Z,56.95
2023-11-15T23:39:49.908Z,54.72
2023-11-15T23:42:26.307Z,61.70
2023-11-15T23:45:01.248Z,50.63
2023-11-15T23:47:40.982Z,59.22
2023-11-15T23:50:23.902Z,55.00
2023-11-15T23:52:57.456Z,62.00
2023-11-15T23:55:29.224Z,58.10
2023-11-15T23:58:04.283Z,57.20
